createdAt,value
2019-04-10T00:00:35.590Z,96074.06
2019-04-10T00:04:37.488Z,96076.00
2019-04-10T00:08:39.406Z,96068.44
2019-04-10T00:12:42.287Z,96071.75
2019-04-10T00:16:44.588Z,96070.83
2019-04-10T00:20:46.969Z,96067.17
2019-04-10T00:24:48.975Z,96068.48
2019-04-10T00:28:51.918Z,96067.84
2019-04-10T00:32:54.422Z,96065.84
2019-04-10T00:36:57.485Z,96071.13
2019-04-10T00:40:59.657Z,96074.53
2019-04-10T00:45:03.906Z,96070.48
2019-04-10T00:49:05.807Z,96062.16
2019-04-10T00:53:08.540Z,96059.27
2019-04-10T00:57:11.378Z,96064.11
2019-04-10T01:01:13.878Z,96058.05
2019-04-10T01:05:17.296Z,96056.38
2019-04-10T01:09:20.176Z,96050.35
2019-04-10T01:13:22.991Z,96055.72
2019-04-10T01:17:24.887Z,96055.05
2019-04-10T01:21:26.798Z,96052.33
2019-04-10T01:25:28.699Z,96049.88
2019-04-10T01:29:30.603Z,96048.00
2019-04-10T01:33:32.561Z,96044.21
2019-04-10T01:37:46.646Z,96044.10
2019-04-10T01:41:38.041Z,96041.33
2019-04-10T01:45:39.957Z,96041.12
2019-04-10T01:49:41.998Z,96036.60
2019-04-10T01:53:44.227Z,96034.39
2019-04-10T01:57:46.400Z,96038.13
2019-04-10T02:01:52.658Z,96045.77
2019-04-10T02:05:54.781Z,96038.61
2019-04-10T02:09:56.680Z,96037.59
2019-04-10T02:13:58.592Z,96040.01
2019-04-10T02:18:01.301Z,96038.98
2019-04-10T02:22:04.334Z,96035.33
2019-04-10T02:26:07.357Z,96038.77
2019-04-10T02:30:14.673Z,96035.62
2019-04-10T02:34:17.228Z,96032.12
2019-04-10T02:38:35.729Z,96024.00
2019-04-10T02:42:24.679Z,96026.77
2019-04-10T02:46:26.941Z,96027.54
2019-04-10T02:50:29.476Z,96029.78
2019-04-10T02:54:33.402Z,96027.45
2019-04-10T02:58:38.533Z,96026.52
2019-04-10T03:02:41.573Z,96021.56
2019-04-10T03:06:45.212Z,96032.94
2019-04-10T03:10:50.580Z,96037.46
2019-04-10T03:14:52.285Z,96029.23
2019-04-10T03:18:54.917Z,96035.06
2019-04-10T03:22:56.957Z,96037.19
2019-04-10T03:26:58.892Z,96021.39
2019-04-10T03:31:02.944Z,96033.51
2019-04-10T03:35:14.472Z,96034.89
2019-04-10T03:39:17.393Z,96038.20
2019-04-10T03:43:19.537Z,96031.12
2019-04-10T03:47:21.422Z,96034.20
2019-04-10T03:51:23.318Z,96036.33
2019-04-10T03:55:25.245Z,96030.37
2019-04-10T03:59:27.145Z,96028.30
2019-04-10T04:03:29.066Z,96031.48
2019-04-10T04:07:30.976Z,96029.05
2019-04-10T04:11:33.526Z,96026.30
2019-04-10T04:15:35.872Z,96032.31
2019-04-10T04:19:38.706Z,96040.16
2019-04-10T04:23:40.686Z,96036.56
2019-04-10T04:27:42.680Z,96035.92
2019-04-10T04:31:44.573Z,96038.50
2019-04-10T04:35:47.395Z,96039.88
2019-04-10T04:39:49.379Z,96038.83
2019-04-10T04:43:51.286Z,96046.63
2019-04-10T04:47:54.026Z,96052.96
2019-04-10T04:51:55.986Z,96046.38
2019-04-10T04:55:57.900Z,96051.52
2019-04-10T04:59:59.813Z,96055.52
2019-04-10T05:04:02.462Z,96055.27
2019-04-10T05:08:07.373Z,96063.19
2019-04-10T05:12:09.641Z,96070.94
2019-04-10T05:16:11.542Z,96074.93
2019-04-10T05:20:14.762Z,96079.15
2019-04-10T05:24:17.776Z,96083.84
2019-04-10T05:28:20.421Z,96091.30
2019-04-10T05:32:23.359Z,96086.37
2019-04-10T05:36:26.585Z,96095.52
2019-04-10T05:40:28.633Z,96094.54
2019-04-10T05:44:44.372Z,96096.02
2019-04-10T05:48:49.010Z,96094.50
2019-04-10T05:52:51.800Z,96088.73
2019-04-10T05:56:54.682Z,96084.75
2019-04-10T06:00:58.862Z,96101.52
2019-04-10T06:05:00.904Z,96099.89
2019-04-10T06:09:04.763Z,96097.97
2019-04-10T06:13:06.852Z,96108.94
2019-04-10T06:17:09.971Z,96101.75
2019-04-10T06:21:12.581Z,96111.13
2019-04-10T06:25:16.014Z,96112.59
2019-04-10T06:29:19.209Z,96113.02
2019-04-10T06:33:22.233Z,96106.22
2019-04-10T06:37:24.259Z,96109.30
2019-04-10T06:41:26.429Z,96111.09
2019-04-10T06:45:28.465Z,96111.38
2019-04-10T06:49:31.117Z,96114.02
2019-04-10T06:53:33.237Z,96114.84
2019-04-10T06:57:48.146Z,96116.16
2019-04-10T07:01:44.329Z,96114.16
2019-04-10T07:05:56.385Z,96119.42
2019-04-10T07:09:47.443Z,96126.70
2019-04-10T07:13:51.519Z,96126.20
2019-04-10T07:17:55.456Z,96121.95
2019-04-10T07:22:00.339Z,96122.70
2019-04-10T07:26:02.090Z,96131.92
2019-04-10T07:30:09.734Z,96133.62
2019-04-10T07:34:11.906Z,96141.89
2019-04-10T07:38:15.911Z,96146.92
2019-04-10T07:42:26.657Z,96144.22
2019-04-10T07:46:21.825Z,96145.22
2019-04-10T07:50:24.760Z,96138.57
2019-04-10T07:54:26.811Z,96139.44
2019-04-10T07:58:29.212Z,96131.55
2019-04-10T08:02:31.751Z,96135.22
2019-04-10T08:06:33.748Z,96140.23
2019-04-10T08:10:36.798Z,96135.70
2019-04-10T08:14:39.717Z,96153.89
2019-04-10T08:18:41.842Z,96152.42
2019-04-10T08:22:44.792Z,96144.56
2019-04-10T08:26:47.248Z,96148.61
2019-04-10T08:30:50.391Z,96146.14
2019-04-10T08:34:52.663Z,96151.22
2019-04-10T08:38:55.010Z,96144.87
2019-04-10T08:42:57.811Z,96148.27
2019-04-10T08:47:00.195Z,96140.73
2019-04-10T08:51:03.111Z,96142.53
2019-04-10T08:55:06.507Z,96146.53
2019-04-10T08:59:27.825Z,96149.64
2019-04-10T09:03:30.917Z,96145.64
2019-04-10T09:07:33.870Z,96145.45
2019-04-10T09:11:37.599Z,96147.72
2019-04-10T09:15:40.282Z,96144.78
2019-04-10T09:19:42.354Z,96154.38
2019-04-10T09:23:50.272Z,96157.83
2019-04-10T09:27:47.874Z,96152.36
2019-04-10T09:31:50.308Z,96159.15
2019-04-10T09:35:52.966Z,96159.39
2019-04-10T09:39:56.473Z,96149.81
2019-04-10T09:43:58.634Z,96151.14
2019-04-10T09:48:00.576Z,96153.27
2019-04-10T09:52:02.743Z,96144.59
2019-04-10T09:56:05.309Z,96143.23
2019-04-10T10:00:10.497Z,96143.02
2019-04-10T10:04:15.350Z,96138.14
2019-04-10T10:08:18.335Z,96133.22
2019-04-10T10:12:20.381Z,96143.45
2019-04-10T10:16:23.854Z,96141.50
2019-04-10T10:20:26.161Z,96135.78
2019-04-10T10:24:28.873Z,96145.41
2019-04-10T10:28:31.183Z,96137.75
2019-04-10T10:32:33.129Z,96139.88
2019-04-10T10:36:41.309Z,96131.89
2019-04-10T10:40:39.433Z,96139.59
2019-04-10T10:44:42.459Z,96132.84
2019-04-10T10:48:44.426Z,96142.05
2019-04-10T10:52:46.336Z,96138.29
2019-04-10T10:56:48.803Z,96139.34
2019-04-10T11:00:51.726Z,96143.06
2019-04-10T11:04:53.942Z,96149.33
2019-04-10T11:08:55.849Z,96143.70
2019-04-10T11:12:58.483Z,96147.39
2019-04-10T11:17:01.375Z,96141.18
2019-04-10T11:21:08.001Z,96142.36
2019-04-10T11:25:08.080Z,96141.84
2019-04-10T11:29:10.157Z,96145.09
2019-04-10T11:33:12.452Z,96151.48
2019-04-10T11:37:24.119Z,96160.13
2019-04-10T11:41:19.249Z,96149.53
2019-04-10T11:45:23.031Z,96157.75
2019-04-10T11:49:27.728Z,96145.99
2019-04-10T11:53:28.861Z,96156.98
2019-04-10T11:57:32.471Z,96163.49
2019-04-10T12:01:36.363Z,96155.77
2019-04-10T12:05:42.026Z,96160.64
2019-04-10T12:13:48.273Z,96162.31
2019-04-10T12:17:50.195Z,96163.00
2019-04-10T12:21:52.112Z,96166.49
2019-04-10T12:25:54.040Z,96167.05
2019-04-10T12:29:57.019Z,96163.11
2019-04-10T12:34:00.346Z,96164.91
2019-04-10T12:38:07.016Z,96163.82
2019-04-10T12:42:06.477Z,96159.16
2019-04-10T12:46:08.628Z,96158.97
2019-04-10T12:50:12.064Z,96160.53
2019-04-10T12:54:14.242Z,96160.02
2019-04-10T12:58:18.943Z,96155.33
2019-04-10T13:02:20.592Z,96155.38
2019-04-10T13:06:22.505Z,96150.01
2019-04-10T13:10:31.688Z,96163.88
2019-04-10T13:14:34.789Z,96161.26
2019-04-10T13:18:38.538Z,96157.80
2019-04-10T13:22:40.530Z,96159.63
2019-04-10T13:26:42.885Z,96158.82
2019-04-10T13:30:52.418Z,96152.89
2019-04-10T13:34:49.310Z,96155.55
2019-04-10T13:38:51.315Z,96150.06
2019-04-10T13:42:53.723Z,96160.98
2019-04-10T13:46:55.655Z,96157.81
2019-04-10T13:50:57.621Z,96157.58
2019-04-10T13:54:59.597Z,96146.18
2019-04-10T13:59:01.586Z,96141.41
2019-04-10T14:03:03.944Z,96150.99
2019-04-10T14:07:07.468Z,96141.73
2019-04-10T14:11:09.432Z,96144.40
2019-04-10T14:15:12.169Z,96148.39
2019-04-10T14:19:15.092Z,96139.61
2019-04-10T14:23:18.661Z,96142.54
2019-04-10T14:27:25.129Z,96147.31
2019-04-10T14:31:32.168Z,96141.99
2019-04-10T14:35:34.183Z,96140.66
2019-04-10T14:39:37.591Z,96144.37
2019-04-10T14:43:42.677Z,96145.95
2019-04-10T14:47:44.484Z,96145.42
2019-04-10T14:51:46.430Z,96144.09
2019-04-10T14:55:49.296Z,96149.12
2019-04-10T14:59:52.435Z,96155.49
2019-04-10T15:03:54.983Z,96154.22
2019-04-10T15:07:57.505Z,96152.61
2019-04-10T15:11:59.437Z,96151.84
2019-04-10T15:16:01.597Z,96157.16
2019-04-10T15:20:04.914Z,96159.27
2019-04-10T15:24:07.052Z,96166.16
2019-04-10T15:28:08.965Z,96170.44
2019-04-10T15:32:12.753Z,96169.67
2019-04-10T15:36:17.891Z,96175.24
2019-04-10T15:40:25.572Z,96178.43
2019-04-10T15:44:25.902Z,96177.13
2019-04-10T15:48:29.377Z,96173.69
2019-04-10T15:52:31.421Z,96174.47
2019-04-10T15:56:33.978Z,96174.74
2019-04-10T16:00:37.059Z,96177.41
2019-04-10T16:04:40.263Z,96173.94
2019-04-10T16:08:42.701Z,96179.53
2019-04-10T16:12:45.738Z,96183.25
2019-04-10T16:16:48.667Z,96183.25
2019-04-10T16:20:52.912Z,96180.58
2019-04-10T16:24:55.663Z,96181.89
2019-04-10T16:28:57.798Z,96189.61
2019-04-10T16:33:00.830Z,96200.18
2019-04-10T16:37:02.977Z,96205.23
2019-04-10T16:41:04.957Z,96208.68
2019-04-10T16:45:08.351Z,96205.72
2019-04-10T16:49:10.646Z,96208.05
2019-04-10T16:53:13.775Z,96216.52
2019-04-10T16:57:18.505Z,96216.20
2019-04-10T17:01:20.554Z,96218.03
2019-04-10T17:05:22.702Z,96228.05
2019-04-10T17:09:26.927Z,96221.63
2019-04-10T17:13:28.880Z,96228.02
2019-04-10T17:17:30.807Z,96233.75
2019-04-10T17:21:32.736Z,96239.02
2019-04-10T17:25:35.958Z,96236.86
2019-04-10T17:29:38.933Z,96243.94
2019-04-10T17:33:41.883Z,96241.66
2019-04-10T17:37:43.907Z,96251.09
2019-04-10T17:41:45.944Z,96252.15
2019-04-10T17:45:48.928Z,96258.96
2019-04-10T17:49:51.827Z,96263.92
2019-04-10T17:53:53.863Z,96271.73
2019-04-10T17:57:57.441Z,96277.70
2019-04-10T18:02:01.697Z,96288.23
2019-04-10T18:06:03.914Z,96288.92
2019-04-10T18:10:08.541Z,96296.83
2019-04-10T18:14:11.162Z,96301.15
2019-04-10T18:18:13.692Z,96315.98
2019-04-10T18:22:15.679Z,96321.75
2019-04-10T18:26:20.371Z,96334.66
2019-04-10T18:30:21.713Z,96333.84
2019-04-10T18:34:24.818Z,96353.11
2019-04-10T18:38:27.800Z,96358.02
2019-04-10T18:42:30.824Z,96359.64
2019-04-10T18:46:32.929Z,96367.55
2019-04-10T18:50:34.870Z,96370.52
2019-04-10T18:54:45.481Z,96375.86
2019-04-10T18:58:56.259Z,96384.44
2019-04-10T19:02:59.194Z,96386.66
2019-04-10T19:11:21.220Z,96397.73
2019-04-10T19:15:18.121Z,96397.20
2019-04-10T19:19:20.953Z,96404.36
2019-04-10T19:23:23.896Z,96406.77
2019-04-10T19:27:26.964Z,96409.41
2019-04-10T19:31:29.849Z,96413.36
2019-04-10T19:35:31.899Z,96413.81
2019-04-10T19:39:34.176Z,96408.59
2019-04-10T19:43:36.435Z,96409.69
2019-04-10T19:47:38.858Z,96415.15
2019-04-10T19:51:40.901Z,96415.89
2019-04-10T19:55:42.794Z,96423.23
2019-04-10T19:59:44.706Z,96418.63
2019-04-10T20:03:46.625Z,96426.70
2019-04-10T20:07:49.217Z,96428.89
2019-04-10T20:11:54.444Z,96433.33
2019-04-10T20:15:55.896Z,96438.62
2019-04-10T20:19:58.800Z,96447.12
2019-04-10T20:24:02.688Z,96448.64
2019-04-10T20:28:04.872Z,96450.27
2019-04-10T20:32:07.865Z,96457.52
2019-04-10T20:36:10.950Z,96460.99
2019-04-10T20:40:13.904Z,96458.75
2019-04-10T20:44:16.585Z,96466.69
2019-04-10T20:48:18.619Z,96470.34
2019-04-10T20:52:20.545Z,96476.34
2019-04-10T20:56:22.448Z,96482.45
2019-04-10T21:00:34.806Z,96480.55
2019-04-10T21:04:37.817Z,96480.81
2019-04-10T21:08:40.419Z,96483.86
2019-04-10T21:12:44.138Z,96497.27
2019-04-10T21:16:46.156Z,96494.19
2019-04-10T21:20:49.138Z,96494.33
2019-04-10T21:24:52.089Z,96498.82
2019-04-10T21:28:54.162Z,96507.12
2019-04-10T21:33:00.630Z,96508.71
2019-04-10T21:37:03.714Z,96511.63
2019-04-10T21:41:08.170Z,96515.11
2019-04-10T21:45:09.626Z,96521.81
2019-04-10T21:49:11.603Z,96522.23
2019-04-10T21:53:14.213Z,96510.26
2019-04-10T21:57:16.144Z,96516.48
2019-04-10T22:01:18.973Z,96522.09
2019-04-10T22:05:22.470Z,96516.33
2019-04-10T22:09:45.228Z,96521.12
2019-04-10T22:13:47.246Z,96529.32
2019-04-10T22:17:50.568Z,96525.59
2019-04-10T22:21:53.627Z,96528.38
2019-04-10T22:25:56.336Z,96528.47
2019-04-10T22:29:58.473Z,96536.56
2019-04-10T22:34:00.827Z,96541.37
2019-04-10T22:38:02.781Z,96547.84
2019-04-10T22:42:06.087Z,96555.12
2019-04-10T22:46:08.777Z,96550.54
2019-04-10T22:50:10.746Z,96552.78
2019-04-10T22:54:13.076Z,96551.40
2019-04-10T22:58:15.051Z,96560.00
2019-04-10T23:02:17.160Z,96559.48
2019-04-10T23:06:19.145Z,96556.58
2019-04-10T23:10:21.251Z,96562.31
2019-04-10T23:14:23.191Z,96562.95
2019-04-10T23:18:25.574Z,96567.38
2019-04-10T23:22:27.474Z,96567.98
2019-04-10T23:26:29.358Z,96569.80
2019-04-10T23:30:31.283Z,96564.63
2019-04-10T23:34:33.195Z,96572.61
2019-04-10T23:38:35.444Z,96573.63
2019-04-10T23:42:37.940Z,96574.13
2019-04-10T23:46:39.883Z,96580.30
2019-04-10T23:50:42.779Z,96576.26
2019-04-10T23:54:45.754Z,96570.30
2019-04-10T23:58:49.089Z,96579.97
